sensor_id;sensor_type;location;lat;lon;timestamp;pressure;altitude;pressure_sealevel;temperature;humidity
64683;BME280;51107;47.652;19.016;2023-04-27T00:00:46;100046.53;;;5.56;58.94
64683;BME280;51107;47.652;19.016;2023-04-27T00:03:16;100062.47;;;5.74;59.01
64683;BME280;51107;47.652;19.016;2023-04-27T00:05:45;100048.94;;;5.70;59.85
64683;BME280;51107;47.652;19.016;2023-04-27T00:08:13;100051.59;;;5.57;60.41
64683;BME280;51107;47.652;19.016;2023-04-27T00:10:42;100044.44;;;5.61;60.73
64683;BME280;51107;47.652;19.016;2023-04-27T00:13:10;100048.84;;;5.48;61.45
64683;BME280;51107;47.652;19.016;2023-04-27T00:15:38;100060.06;;;5.35;62.38
64683;BME280;51107;47.652;19.016;2023-04-27T00:18:08;100059.28;;;5.22;62.00
64683;BME280;51107;47.652;19.016;2023-04-27T00:20:36;100058.81;;;5.04;62.52
64683;BME280;51107;47.652;19.016;2023-04-27T00:23:05;100057.37;;;5.00;61.96
64683;BME280;51107;47.652;19.016;2023-04-27T00:25:34;100064.94;;;5.03;61.75
64683;BME280;51107;47.652;19.016;2023-04-27T00:28:02;100056.81;;;4.83;63.16
64683;BME280;51107;47.652;19.016;2023-04-27T00:30:31;100064.91;;;4.66;63.51
64683;BME280;51107;47.652;19.016;2023-04-27T00:33:00;100056.09;;;4.68;63.47
64683;BME280;51107;47.652;19.016;2023-04-27T00:35:29;100068.63;;;4.49;63.76
64683;BME280;51107;47.652;19.016;2023-04-27T00:37:59;100058.63;;;4.31;65.45
64683;BME280;51107;47.652;19.016;2023-04-27T00:40:27;100067.25;;;4.04;67.12
64683;BME280;51107;47.652;19.016;2023-04-27T00:42:56;100069.12;;;4.28;66.87
64683;BME280;51107;47.652;19.016;2023-04-27T00:45:25;100068.28;;;4.02;67.75
64683;BME280;51107;47.652;19.016;2023-04-27T00:47:53;100064.16;;;3.86;69.36
64683;BME280;51107;47.652;19.016;2023-04-27T00:50:29;100066.75;;;3.99;68.52
64683;BME280;51107;47.652;19.016;2023-04-27T00:52:59;100067.75;;;3.84;68.83
64683;BME280;51107;47.652;19.016;2023-04-27T00:55:28;100059.53;;;3.91;67.69
64683;BME280;51107;47.652;19.016;2023-04-27T00:57:56;100064.91;;;4.01;66.97
64683;BME280;51107;47.652;19.016;2023-04-27T01:00:25;100053.87;;;4.12;66.86
64683;BME280;51107;47.652;19.016;2023-04-27T01:02:54;100058.13;;;4.26;66.80
64683;BME280;51107;47.652;19.016;2023-04-27T01:05:26;100061.72;;;4.23;64.96
64683;BME280;51107;47.652;19.016;2023-04-27T01:07:54;100064.69;;;3.91;67.85
64683;BME280;51107;47.652;19.016;2023-04-27T01:10:23;100060.53;;;3.76;68.97
64683;BME280;51107;47.652;19.016;2023-04-27T01:12:51;100067.22;;;3.79;69.44
64683;BME280;51107;47.652;19.016;2023-04-27T01:15:20;100074.91;;;3.66;69.61
64683;BME280;51107;47.652;19.016;2023-04-27T01:17:48;100069.09;;;3.89;67.41
64683;BME280;51107;47.652;19.016;2023-04-27T01:20:16;100067.69;;;3.98;67.01
64683;BME280;51107;47.652;19.016;2023-04-27T01:22:47;100060.66;;;4.13;66.79
64683;BME280;51107;47.652;19.016;2023-04-27T01:25:15;100069.44;;;4.23;65.55
64683;BME280;51107;47.652;19.016;2023-04-27T01:27:43;100071.53;;;4.31;65.38
64683;BME280;51107;47.652;19.016;2023-04-27T01:30:12;100074.41;;;4.14;66.96
64683;BME280;51107;47.652;19.016;2023-04-27T01:32:40;100077.25;;;4.09;67.83
64683;BME280;51107;47.652;19.016;2023-04-27T01:35:09;100073.31;;;3.78;69.23
64683;BME280;51107;47.652;19.016;2023-04-27T01:37:37;100076.69;;;3.78;69.87
64683;BME280;51107;47.652;19.016;2023-04-27T01:40:06;100071.44;;;3.80;70.91
64683;BME280;51107;47.652;19.016;2023-04-27T01:42:35;100072.62;;;4.01;69.88
64683;BME280;51107;47.652;19.016;2023-04-27T01:45:04;100079.66;;;4.12;68.69
64683;BME280;51107;47.652;19.016;2023-04-27T01:47:32;100085.75;;;4.24;66.68
64683;BME280;51107;47.652;19.016;2023-04-27T01:50:01;100069.75;;;4.45;64.48
64683;BME280;51107;47.652;19.016;2023-04-27T01:52:29;100079.78;;;4.62;62.86
64683;BME280;51107;47.652;19.016;2023-04-27T01:54:58;100084.31;;;4.71;63.88
64683;BME280;51107;47.652;19.016;2023-04-27T01:57:26;100080.59;;;4.75;63.58
64683;BME280;51107;47.652;19.016;2023-04-27T01:59:55;100085.44;;;4.67;63.59
64683;BME280;51107;47.652;19.016;2023-04-27T02:02:23;100084.72;;;4.52;64.96
64683;BME280;51107;47.652;19.016;2023-04-27T02:04:52;100095.19;;;3.98;69.09
64683;BME280;51107;47.652;19.016;2023-04-27T02:07:21;100090.22;;;3.82;70.25
64683;BME280;51107;47.652;19.016;2023-04-27T02:09:50;100091.06;;;3.95;70.22
64683;BME280;51107;47.652;19.016;2023-04-27T02:12:18;100087.91;;;3.64;70.89
64683;BME280;51107;47.652;19.016;2023-04-27T02:14:46;100091.37;;;3.36;71.93
64683;BME280;51107;47.652;19.016;2023-04-27T02:17:15;100095.63;;;3.37;72.02
64683;BME280;51107;47.652;19.016;2023-04-27T02:19:43;100102.53;;;3.36;72.48
64683;BME280;51107;47.652;19.016;2023-04-27T02:22:11;100098.34;;;3.06;73.73
64683;BME280;51107;47.652;19.016;2023-04-27T02:24:40;100099.47;;;3.17;72.70
64683;BME280;51107;47.652;19.016;2023-04-27T02:27:08;100096.16;;;3.00;72.87
64683;BME280;51107;47.652;19.016;2023-04-27T02:29:37;100102.81;;;2.76;74.44
64683;BME280;51107;47.652;19.016;2023-04-27T02:32:07;100102.88;;;2.74;74.36
64683;BME280;51107;47.652;19.016;2023-04-27T02:34:35;100098.03;;;2.84;74.47
64683;BME280;51107;47.652;19.016;2023-04-27T02:37:03;100101.87;;;2.91;73.90
64683;BME280;51107;47.652;19.016;2023-04-27T02:39:32;100107.38;;;2.85;74.27
64683;BME280;51107;47.652;19.016;2023-04-27T02:42:01;100111.97;;;2.94;74.41
64683;BME280;51107;47.652;19.016;2023-04-27T02:44:30;100116.09;;;2.82;74.56
64683;BME280;51107;47.652;19.016;2023-04-27T02:46:58;100114.84;;;2.89;73.40
64683;BME280;51107;47.652;19.016;2023-04-27T02:49:27;100108.66;;;3.06;71.72
64683;BME280;51107;47.652;19.016;2023-04-27T02:51:59;100125.34;;;3.28;70.88
64683;BME280;51107;47.652;19.016;2023-04-27T02:54:28;100121.47;;;3.35;71.71
64683;BME280;51107;47.652;19.016;2023-04-27T02:56:56;100120.16;;;3.43;70.39
64683;BME280;51107;47.652;19.016;2023-04-27T02:59:25;100120.41;;;3.52;71.16
64683;BME280;51107;47.652;19.016;2023-04-27T03:01:54;100117.25;;;3.34;71.51
64683;BME280;51107;47.652;19.016;2023-04-27T03:04:22;100113.84;;;3.34;73.01
64683;BME280;51107;47.652;19.016;2023-04-27T03:06:51;100113.00;;;3.33;72.68
64683;BME280;51107;47.652;19.016;2023-04-27T03:09:20;100125.72;;;3.22;72.29
64683;BME280;51107;47.652;19.016;2023-04-27T03:11:48;100125.47;;;3.12;71.68
64683;BME280;51107;47.652;19.016;2023-04-27T03:14:16;100125.88;;;3.33;70.01
64683;BME280;51107;47.652;19.016;2023-04-27T03:16:44;100122.53;;;3.46;69.75
64683;BME280;51107;47.652;19.016;2023-04-27T03:19:13;100130.34;;;3.59;68.60
64683;BME280;51107;47.652;19.016;2023-04-27T03:21:42;100127.59;;;3.74;67.82
64683;BME280;51107;47.652;19.016;2023-04-27T03:24:10;100128.87;;;3.82;67.63
64683;BME280;51107;47.652;19.016;2023-04-27T03:26:39;100124.00;;;3.77;66.74
64683;BME280;51107;47.652;19.016;2023-04-27T03:29:07;100130.62;;;3.81;67.14
64683;BME280;51107;47.652;19.016;2023-04-27T03:31:36;100136.22;;;3.19;70.59
64683;BME280;51107;47.652;19.016;2023-04-27T03:34:05;100132.50;;;3.37;70.49
64683;BME280;51107;47.652;19.016;2023-04-27T03:36:33;100137.84;;;3.34;71.37
64683;BME280;51107;47.652;19.016;2023-04-27T03:39:02;100149.69;;;3.51;70.61
64683;BME280;51107;47.652;19.016;2023-04-27T03:41:30;100153.38;;;3.33;71.18
64683;BME280;51107;47.652;19.016;2023-04-27T03:43:58;100155.16;;;3.18;73.04
64683;BME280;51107;47.652;19.016;2023-04-27T03:46:27;100153.88;;;3.25;72.29
64683;BME280;51107;47.652;19.016;2023-04-27T03:48:56;100159.22;;;3.08;73.01
64683;BME280;51107;47.652;19.016;2023-04-27T03:51:24;100161.44;;;2.99;73.61
64683;BME280;51107;47.652;19.016;2023-04-27T03:53:53;100159.13;;;2.80;74.51
64683;BME280;51107;47.652;19.016;2023-04-27T03:56:21;100168.00;;;2.60;74.34
64683;BME280;51107;47.652;19.016;2023-04-27T03:58:51;100169.03;;;2.72;74.75
64683;BME280;51107;47.652;19.016;2023-04-27T04:01:20;100170.84;;;2.70;75.15
64683;BME280;51107;47.652;19.016;2023-04-27T04:03:49;100156.84;;;2.76;76.50
64683;BME280;51107;47.652;19.016;2023-04-27T04:06:18;100155.50;;;2.68;76.23
64683;BME280;51107;47.652;19.016;2023-04-27T04:08:47;100164.69;;;2.58;76.89
64683;BME280;51107;47.652;19.016;2023-04-27T04:11:16;100165.13;;;2.36;77.41
64683;BME280;51107;47.652;19.016;2023-04-27T04:13:44;100173.00;;;2.33;77.28
64683;BME280;51107;47.652;19.016;2023-04-27T04:16:13;100176.00;;;2.55;77.14
64683;BME280;51107;47.652;19.016;2023-04-27T04:18:41;100181.56;;;2.48;77.26
64683;BME280;51107;47.652;19.016;2023-04-27T04:21:10;100171.28;;;2.48;76.72
64683;BME280;51107;47.652;19.016;2023-04-27T04:23:38;100176.34;;;2.19;77.67
64683;BME280;51107;47.652;19.016;2023-04-27T04:26:08;100182.56;;;2.15;78.45
64683;BME280;51107;47.652;19.016;2023-04-27T04:28:37;100181.47;;;2.35;78.06
64683;BME280;51107;47.652;19.016;2023-04-27T04:31:05;100186.91;;;2.45;77.82
64683;BME280;51107;47.652;19.016;2023-04-27T04:33:36;100182.19;;;2.67;78.04
64683;BME280;51107;47.652;19.016;2023-04-27T04:36:05;100179.31;;;2.86;78.11
64683;BME280;51107;47.652;19.016;2023-04-27T04:38:33;100190.72;;;2.82;76.59
64683;BME280;51107;47.652;19.016;2023-04-27T04:41:02;100184.69;;;2.98;76.43
64683;BME280;51107;47.652;19.016;2023-04-27T04:43:31;100192.31;;;2.99;76.16
64683;BME280;51107;47.652;19.016;2023-04-27T04:46:02;100197.81;;;3.22;75.40
64683;BME280;51107;47.652;19.016;2023-04-27T04:48:31;100201.22;;;3.37;75.97
64683;BME280;51107;47.652;19.016;2023-04-27T04:51:00;100195.31;;;3.49;74.88
64683;BME280;51107;47.652;19.016;2023-04-27T04:53:29;100204.13;;;3.60;73.98
64683;BME280;51107;47.652;19.016;2023-04-27T04:56:07;100205.00;;;3.73;74.65
64683;BME280;51107;47.652;19.016;2023-04-27T04:58:35;100208.59;;;3.70;74.16
64683;BME280;51107;47.652;19.016;2023-04-27T05:01:04;100208.09;;;3.93;73.54
64683;BME280;51107;47.652;19.016;2023-04-27T05:03:33;100206.87;;;3.98;72.88
64683;BME280;51107;47.652;19.016;2023-04-27T05:06:02;100207.28;;;4.05;73.61
64683;BME280;51107;47.652;19.016;2023-04-27T05:08:31;100213.91;;;4.09;73.33
64683;BME280;51107;47.652;19.016;2023-04-27T05:10:59;100206.34;;;4.20;73.32
64683;BME280;51107;47.652;19.016;2023-04-27T05:13:28;100218.34;;;4.07;72.26
64683;BME280;51107;47.652;19.016;2023-04-27T05:15:56;100218.09;;;4.24;71.33
64683;BME280;51107;47.652;19.016;2023-04-27T05:18:24;100221.47;;;4.12;72.31
64683;BME280;51107;47.652;19.016;2023-04-27T05:20:53;100222.63;;;4.21;71.87
64683;BME280;51107;47.652;19.016;2023-04-27T05:23:22;100230.81;;;4.40;72.23
64683;BME280;51107;47.652;19.016;2023-04-27T05:25:50;100230.03;;;4.53;71.47
64683;BME280;51107;47.652;19.016;2023-04-27T05:28:18;100222.91;;;4.44;71.26
64683;BME280;51107;47.652;19.016;2023-04-27T05:30:50;100236.84;;;4.41;71.43
64683;BME280;51107;47.652;19.016;2023-04-27T05:33:19;100231.78;;;4.52;71.83
64683;BME280;51107;47.652;19.016;2023-04-27T05:35:48;100231.59;;;4.68;71.36
64683;BME280;51107;47.652;19.016;2023-04-27T05:38:16;100235.12;;;4.93;73.53
64683;BME280;51107;47.652;19.016;2023-04-27T05:40:44;100242.38;;;5.01;72.83
64683;BME280;51107;47.652;19.016;2023-04-27T05:43:13;100240.50;;;5.28;73.88
64683;BME280;51107;47.652;19.016;2023-04-27T05:45:41;100242.12;;;5.55;73.97
64683;BME280;51107;47.652;19.016;2023-04-27T05:48:09;100233.53;;;5.92;72.34
64683;BME280;51107;47.652;19.016;2023-04-27T05:50:39;100237.44;;;6.10;71.28
64683;BME280;51107;47.652;19.016;2023-04-27T05:53:07;100246.22;;;6.32;72.15
64683;BME280;51107;47.652;19.016;2023-04-27T05:55:36;100237.53;;;6.33;69.20
64683;BME280;51107;47.652;19.016;2023-04-27T05:58:06;100233.22;;;6.45;68.56
64683;BME280;51107;47.652;19.016;2023-04-27T06:00:36;100236.56;;;6.58;68.67
64683;BME280;51107;47.652;19.016;2023-04-27T06:03:06;100238.16;;;6.84;70.52
64683;BME280;51107;47.652;19.016;2023-04-27T06:05:34;100245.19;;;6.82;68.78
64683;BME280;51107;47.652;19.016;2023-04-27T06:08:03;100244.69;;;7.23;70.69
64683;BME280;51107;47.652;19.016;2023-04-27T06:10:32;100250.22;;;7.41;67.63
64683;BME280;51107;47.652;19.016;2023-04-27T06:13:00;100245.59;;;7.68;68.04
64683;BME280;51107;47.652;19.016;2023-04-27T06:15:28;100247.63;;;7.41;68.38
64683;BME280;51107;47.652;19.016;2023-04-27T06:17:57;100252.31;;;7.36;67.89
64683;BME280;51107;47.652;19.016;2023-04-27T06:20:25;100254.19;;;7.68;67.30
64683;BME280;51107;47.652;19.016;2023-04-27T06:22:53;100254.63;;;7.85;64.79
64683;BME280;51107;47.652;19.016;2023-04-27T06:25:22;100248.56;;;8.07;66.42
64683;BME280;51107;47.652;19.016;2023-04-27T06:27:54;100256.72;;;8.02;65.17
64683;BME280;51107;47.652;19.016;2023-04-27T06:30:23;100260.34;;;8.43;66.84
64683;BME280;51107;47.652;19.016;2023-04-27T06:32:55;100263.53;;;8.47;66.58
64683;BME280;51107;47.652;19.016;2023-04-27T06:35:23;100259.84;;;8.82;66.84
64683;BME280;51107;47.652;19.016;2023-04-27T06:37:52;100260.97;;;8.89;66.18
64683;BME280;51107;47.652;19.016;2023-04-27T06:40:20;100265.59;;;8.86;65.88
64683;BME280;51107;47.652;19.016;2023-04-27T06:42:48;100263.59;;;8.68;64.96
64683;BME280;51107;47.652;19.016;2023-04-27T06:45:17;100273.56;;;8.94;66.32
64683;BME280;51107;47.652;19.016;2023-04-27T06:47:45;100264.00;;;8.73;63.90
64683;BME280;51107;47.652;19.016;2023-04-27T06:50:14;100272.62;;;8.95;64.53
64683;BME280;51107;47.652;19.016;2023-04-27T06:52:43;100282.25;;;9.04;63.50
64683;BME280;51107;47.652;19.016;2023-04-27T06:55:11;100274.59;;;9.03;63.69
64683;BME280;51107;47.652;19.016;2023-04-27T06:57:40;100275.94;;;8.97;62.70
64683;BME280;51107;47.652;19.016;2023-04-27T07:00:09;100280.16;;;8.77;63.50
64683;BME280;51107;47.652;19.016;2023-04-27T07:02:38;100280.16;;;8.98;62.41
64683;BME280;51107;47.652;19.016;2023-04-27T07:05:07;100283.25;;;9.13;63.76
64683;BME280;51107;47.652;19.016;2023-04-27T07:07:35;100276.41;;;9.33;61.92
64683;BME280;51107;47.652;19.016;2023-04-27T07:10:04;100277.84;;;9.57;61.55
64683;BME280;51107;47.652;19.016;2023-04-27T07:12:33;100286.31;;;9.90;59.09
64683;BME280;51107;47.652;19.016;2023-04-27T07:15:03;100276.84;;;9.89;56.60
64683;BME280;51107;47.652;19.016;2023-04-27T07:17:33;100279.16;;;9.92;54.04
64683;BME280;51107;47.652;19.016;2023-04-27T07:20:02;100276.78;;;10.59;53.08
64683;BME280;51107;47.652;19.016;2023-04-27T07:22:33;100280.31;;;10.09;49.06
64683;BME280;51107;47.652;19.016;2023-04-27T07:25:01;100278.44;;;10.79;53.80
64683;BME280;51107;47.652;19.016;2023-04-27T07:27:31;100282.75;;;11.08;46.92
64683;BME280;51107;47.652;19.016;2023-04-27T07:30:00;100280.75;;;11.39;50.73
64683;BME280;51107;47.652;19.016;2023-04-27T07:32:29;100280.87;;;11.38;49.89
64683;BME280;51107;47.652;19.016;2023-04-27T07:34:57;100286.84;;;11.58;48.84
64683;BME280;51107;47.652;19.016;2023-04-27T07:37:26;100285.69;;;11.70;48.78
64683;BME280;51107;47.652;19.016;2023-04-27T07:39:55;100284.91;;;11.60;46.45
64683;BME280;51107;47.652;19.016;2023-04-27T07:42:24;100291.50;;;11.64;46.26
64683;BME280;51107;47.652;19.016;2023-04-27T07:44:53;100292.31;;;11.65;45.08
64683;BME280;51107;47.652;19.016;2023-04-27T07:47:21;100279.97;;;11.85;44.29
64683;BME280;51107;47.652;19.016;2023-04-27T07:49:49;100283.78;;;11.90;46.81
64683;BME280;51107;47.652;19.016;2023-04-27T07:52:20;100284.75;;;12.17;43.78
64683;BME280;51107;47.652;19.016;2023-04-27T07:54:48;100284.37;;;12.93;44.80
64683;BME280;51107;47.652;19.016;2023-04-27T07:57:16;100276.53;;;13.45;41.73
64683;BME280;51107;47.652;19.016;2023-04-27T07:59:45;100276.03;;;14.01;39.15
64683;BME280;51107;47.652;19.016;2023-04-27T08:02:14;100278.28;;;13.71;40.54
64683;BME280;51107;47.652;19.016;2023-04-27T08:04:48;100276.09;;;13.58;36.46
64683;BME280;51107;47.652;19.016;2023-04-27T08:07:18;100279.69;;;14.08;39.52
64683;BME280;51107;47.652;19.016;2023-04-27T08:09:50;100267.94;;;14.61;36.93
64683;BME280;51107;47.652;19.016;2023-04-27T08:12:19;100264.97;;;14.32;39.00
64683;BME280;51107;47.652;19.016;2023-04-27T08:14:47;100268.25;;;14.91;37.58
64683;BME280;51107;47.652;19.016;2023-04-27T08:17:16;100272.66;;;15.55;37.93
64683;BME280;51107;47.652;19.016;2023-04-27T08:19:49;100273.31;;;14.85;35.08
64683;BME280;51107;47.652;19.016;2023-04-27T08:22:17;100265.31;;;14.78;34.48
64683;BME280;51107;47.652;19.016;2023-04-27T08:24:45;100281.25;;;13.41;34.54
64683;BME280;51107;47.652;19.016;2023-04-27T08:27:14;100285.59;;;13.33;37.26
64683;BME280;51107;47.652;19.016;2023-04-27T08:29:46;100285.19;;;13.19;36.68
64683;BME280;51107;47.652;19.016;2023-04-27T08:32:15;100285.09;;;13.03;36.88
64683;BME280;51107;47.652;19.016;2023-04-27T08:34:43;100281.63;;;12.50;36.05
64683;BME280;51107;47.652;19.016;2023-04-27T08:37:13;100278.06;;;12.33;36.47
64683;BME280;51107;47.652;19.016;2023-04-27T08:39:41;100282.66;;;12.39;36.55
64683;BME280;51107;47.652;19.016;2023-04-27T08:42:10;100282.69;;;11.93;38.02
64683;BME280;51107;47.652;19.016;2023-04-27T08:44:40;100286.53;;;11.99;39.14
64683;BME280;51107;47.652;19.016;2023-04-27T08:47:10;100269.72;;;11.46;37.84
64683;BME280;51107;47.652;19.016;2023-04-27T08:49:38;100282.41;;;11.96;38.02
64683;BME280;51107;47.652;19.016;2023-04-27T08:52:15;100285.56;;;11.90;39.63
64683;BME280;51107;47.652;19.016;2023-04-27T08:54:45;100279.53;;;11.89;39.42
64683;BME280;51107;47.652;19.016;2023-04-27T08:57:14;100281.78;;;11.19;36.37
64683;BME280;51107;47.652;19.016;2023-04-27T08:59:43;100281.09;;;11.82;39.42
64683;BME280;51107;47.652;19.016;2023-04-27T09:02:19;100270.50;;;13.18;38.59
64683;BME280;51107;47.652;19.016;2023-04-27T09:04:48;100271.00;;;14.24;34.49
64683;BME280;51107;47.652;19.016;2023-04-27T09:07:22;100267.94;;;14.45;34.62
64683;BME280;51107;47.652;19.016;2023-04-27T09:10:06;100271.28;;;13.45;33.78
64683;BME280;51107;47.652;19.016;2023-04-27T09:12:56;100273.16;;;13.61;35.44
64683;BME280;51107;47.652;19.016;2023-04-27T09:15:44;100270.03;;;13.57;32.52
64683;BME280;51107;47.652;19.016;2023-04-27T09:18:22;100270.59;;;13.08;33.29
64683;BME280;51107;47.652;19.016;2023-04-27T09:20:59;100259.66;;;13.13;32.74
64683;BME280;51107;47.652;19.016;2023-04-27T09:23:37;100263.22;;;12.60;34.38
64683;BME280;51107;47.652;19.016;2023-04-27T09:26:48;100266.53;;;12.44;34.58
64683;BME280;51107;47.652;19.016;2023-04-27T09:29:40;100247.41;;;12.87;31.15
64683;BME280;51107;47.652;19.016;2023-04-27T09:32:30;100246.94;;;14.12;33.92
64683;BME280;51107;47.652;19.016;2023-04-27T09:35:30;100246.63;;;14.56;31.07
64683;BME280;51107;47.652;19.016;2023-04-27T09:38:20;100246.22;;;15.57;31.45
64683;BME280;51107;47.652;19.016;2023-04-27T09:41:14;100244.56;;;16.42;31.01
64683;BME280;51107;47.652;19.016;2023-04-27T09:44:07;100238.62;;;15.31;29.84
64683;BME280;51107;47.652;19.016;2023-04-27T10:03:30;100232.38;;;14.26;35.35
64683;BME280;51107;47.652;19.016;2023-04-27T10:09:03;100229.84;;;15.07;32.53
64683;BME280;51107;47.652;19.016;2023-04-27T10:11:38;100229.66;;;16.11;32.68
64683;BME280;51107;47.652;19.016;2023-04-27T10:14:09;100224.22;;;16.36;30.68
64683;BME280;51107;47.652;19.016;2023-04-27T10:16:59;100225.12;;;16.05;29.76
64683;BME280;51107;47.652;19.016;2023-04-27T10:19:28;100228.62;;;15.26;30.94
64683;BME280;51107;47.652;19.016;2023-04-27T10:21:59;100221.56;;;14.78;31.67
64683;BME280;51107;47.652;19.016;2023-04-27T10:24:38;100227.78;;;14.36;32.45
64683;BME280;51107;47.652;19.016;2023-04-27T10:27:10;100238.06;;;13.97;33.59
64683;BME280;51107;47.652;19.016;2023-04-27T10:29:44;100225.47;;;13.92;32.90
64683;BME280;51107;47.652;19.016;2023-04-27T10:32:23;100226.56;;;15.05;36.12
64683;BME280;51107;47.652;19.016;2023-04-27T10:35:03;100215.22;;;15.84;32.42
64683;BME280;51107;47.652;19.016;2023-04-27T10:37:40;100223.44;;;15.49;30.12
64683;BME280;51107;47.652;19.016;2023-04-27T10:40:11;100215.66;;;14.68;32.13
64683;BME280;51107;47.652;19.016;2023-04-27T10:42:46;100216.47;;;14.77;30.89
64683;BME280;51107;47.652;19.016;2023-04-27T10:45:26;100224.34;;;14.19;31.83
64683;BME280;51107;47.652;19.016;2023-04-27T10:48:00;100222.88;;;14.33;31.22
64683;BME280;51107;47.652;19.016;2023-04-27T10:50:28;100216.94;;;14.81;34.72
64683;BME280;51107;47.652;19.016;2023-04-27T10:53:05;100223.31;;;15.74;34.81
64683;BME280;51107;47.652;19.016;2023-04-27T10:55:35;100225.62;;;14.98;32.81
64683;BME280;51107;47.652;19.016;2023-04-27T10:58:03;100227.31;;;14.66;31.37
64683;BME280;51107;47.652;19.016;2023-04-27T11:00:39;100221.06;;;14.34;33.12
64683;BME280;51107;47.652;19.016;2023-04-27T11:03:23;100223.03;;;14.23;33.99
64683;BME280;51107;47.652;19.016;2023-04-27T11:06:00;100222.06;;;14.08;33.22
64683;BME280;51107;47.652;19.016;2023-04-27T11:08:31;100208.12;;;14.73;32.82
64683;BME280;51107;47.652;19.016;2023-04-27T11:11:01;100212.66;;;15.04;32.93
64683;BME280;51107;47.652;19.016;2023-04-27T11:13:29;100217.28;;;14.86;31.34
64683;BME280;51107;47.652;19.016;2023-04-27T11:16:00;100206.34;;;14.49;31.38
64683;BME280;51107;47.652;19.016;2023-04-27T11:18:31;100206.34;;;14.49;33.67
64683;BME280;51107;47.652;19.016;2023-04-27T11:21:08;100207.81;;;14.43;34.12
64683;BME280;51107;47.652;19.016;2023-04-27T11:23:37;100201.91;;;14.41;34.00
64683;BME280;51107;47.652;19.016;2023-04-27T11:28:39;100192.22;;;13.76;35.32
64683;BME280;51107;47.652;19.016;2023-04-27T11:31:09;100211.41;;;14.18;34.66
64683;BME280;51107;47.652;19.016;2023-04-27T11:33:38;100204.34;;;14.35;34.88
64683;BME280;51107;47.652;19.016;2023-04-27T11:36:19;100210.91;;;14.31;35.07
64683;BME280;51107;47.652;19.016;2023-04-27T11:38:48;100203.37;;;14.52;34.31
64683;BME280;51107;47.652;19.016;2023-04-27T11:41:18;100196.16;;;14.63;34.55
64683;BME280;51107;47.652;19.016;2023-04-27T11:43:46;100190.22;;;14.85;36.10
64683;BME280;51107;47.652;19.016;2023-04-27T11:46:19;100200.06;;;15.31;33.12
64683;BME280;51107;47.652;19.016;2023-04-27T11:48:48;100194.25;;;15.44;32.90
64683;BME280;51107;47.652;19.016;2023-04-27T11:51:16;100199.72;;;14.94;33.34
64683;BME280;51107;47.652;19.016;2023-04-27T11:53:46;100205.41;;;15.06;33.23
64683;BME280;51107;47.652;19.016;2023-04-27T11:56:14;100056.00;;;14.09;31.60
64683;BME280;51107;47.652;19.016;2023-04-27T11:58:43;100200.75;;;14.69;35.33
64683;BME280;51107;47.652;19.016;2023-04-27T12:01:14;100201.03;;;14.99;33.47
64683;BME280;51107;47.652;19.016;2023-04-27T12:03:52;100205.66;;;14.72;32.64
64683;BME280;51107;47.652;19.016;2023-04-27T12:06:27;100194.38;;;14.71;34.04
64683;BME280;51107;47.652;19.016;2023-04-27T12:09:01;100214.44;;;14.95;33.65
64683;BME280;51107;47.652;19.016;2023-04-27T12:11:30;100207.28;;;14.89;32.45
64683;BME280;51107;47.652;19.016;2023-04-27T12:13:59;100208.28;;;14.72;33.48
64683;BME280;51107;47.652;19.016;2023-04-27T12:16:28;100206.00;;;14.19;34.06
64683;BME280;51107;47.652;19.016;2023-04-27T12:18:57;100202.87;;;14.24;34.13
64683;BME280;51107;47.652;19.016;2023-04-27T12:21:25;100210.56;;;13.92;34.28
64683;BME280;51107;47.652;19.016;2023-04-27T12:23:53;100192.56;;;13.98;34.48
64683;BME280;51107;47.652;19.016;2023-04-27T12:26:21;100201.41;;;14.05;33.98
64683;BME280;51107;47.652;19.016;2023-04-27T12:28:50;100197.44;;;13.92;34.59
64683;BME280;51107;47.652;19.016;2023-04-27T12:31:18;100201.72;;;14.02;35.62
64683;BME280;51107;47.652;19.016;2023-04-27T12:33:54;100196.03;;;14.23;33.05
64683;BME280;51107;47.652;19.016;2023-04-27T12:36:23;100200.75;;;14.36;33.22
64683;BME280;51107;47.652;19.016;2023-04-27T12:38:52;100200.59;;;14.37;33.15
64683;BME280;51107;47.652;19.016;2023-04-27T12:41:20;100188.63;;;14.35;33.36
64683;BME280;51107;47.652;19.016;2023-04-27T12:43:51;100195.53;;;14.27;33.89
64683;BME280;51107;47.652;19.016;2023-04-27T12:46:19;100188.31;;;14.13;32.40
64683;BME280;51107;47.652;19.016;2023-04-27T12:48:48;100193.53;;;14.05;34.62
64683;BME280;51107;47.652;19.016;2023-04-27T12:51:16;100188.31;;;14.21;34.72
64683;BME280;51107;47.652;19.016;2023-04-27T12:53:45;100197.47;;;14.17;34.35
64683;BME280;51107;47.652;19.016;2023-04-27T12:56:13;100198.12;;;14.11;36.01
64683;BME280;51107;47.652;19.016;2023-04-27T12:58:43;100187.50;;;14.21;34.49
64683;BME280;51107;47.652;19.016;2023-04-27T13:01:11;100197.34;;;14.27;33.89
64683;BME280;51107;47.652;19.016;2023-04-27T13:03:43;100193.06;;;14.34;33.75
64683;BME280;51107;47.652;19.016;2023-04-27T13:06:12;100191.75;;;14.47;33.64
64683;BME280;51107;47.652;19.016;2023-04-27T13:08:40;100189.78;;;14.32;33.77
64683;BME280;51107;47.652;19.016;2023-04-27T13:11:08;100188.47;;;14.44;33.46
64683;BME280;51107;47.652;19.016;2023-04-27T13:13:37;100187.66;;;14.52;33.06
64683;BME280;51107;47.652;19.016;2023-04-27T13:16:05;100197.16;;;14.37;31.89
64683;BME280;51107;47.652;19.016;2023-04-27T13:18:34;100192.91;;;14.27;31.63
64683;BME280;51107;47.652;19.016;2023-04-27T13:21:04;100193.88;;;14.18;34.15
64683;BME280;51107;47.652;19.016;2023-04-27T13:23:32;100182.41;;;14.11;33.66